Time;durP1;ratioP1;P1;durP2;ratioP2;P2;SDS_P1;SDS_P2;PMS_P1;PMS_P2;Temp;Humidity;BMP_temperature;BMP_pressure;BME280_temperature;BME280_humidity;BME280_pressure;Samples;Min_cycle;Max_cycle;Signal;HPM_P1;HPM_P2
2023/06/13 00:01:51;;;;;;;6.03;4.12;;;;;;;26.51;53.85;100673.94;143733;646;48004;-83
2023/06/13 00:04:23;;;;;;;6.18;3.80;;;;;;;26.49;54.12;100680.56;143735;720;47008;-84
2023/06/13 00:06:52;;;;;;;5.32;3.50;;;;;;;26.50;53.65;100675.88;143739;567;45010;-84
2023/06/13 00:09:20;;;;;;;6.45;4.22;;;;;;;26.52;53.43;100670.06;143734;622;45923;-86
2023/06/13 00:11:50;;;;;;;5.95;4.30;;;;;;;26.53;53.89;100671.69;143735;690;47004;-85
2023/06/13 00:14:20;;;;;;;9.82;4.37;;;;;;;26.52;53.51;100664.53;143731;671;46008;-84
2023/06/13 00:16:48;;;;;;;5.22;4.00;;;;;;;26.53;55.08;100668.94;143737;578;46006;-84
2023/06/13 00:19:15;;;;;;;6.10;4.03;;;;;;;26.53;54.54;100672.50;143728;575;46012;-83
2023/06/13 00:21:42;;;;;;;6.62;3.90;;;;;;;26.56;54.07;100668.31;143736;609;46004;-83
2023/06/13 00:24:09;;;;;;;8.77;3.70;;;;;;;26.56;55.01;100669.16;143733;644;46004;-85
2023/06/13 00:26:36;;;;;;;5.95;3.90;;;;;;;26.55;55.06;100667.53;143738;727;46002;-86
2023/06/13 00:29:04;;;;;;;7.37;4.03;;;;;;;26.51;55.83;100661.00;143733;612;48010;-84
2023/06/13 00:31:31;;;;;;;5.10;4.22;;;;;;;26.51;55.83;100665.66;143733;566;46006;-85
2023/06/13 00:34:06;;;;;;;5.97;3.85;;;;;;;26.48;56.65;100669.88;143729;575;47006;-84
2023/06/13 00:36:34;;;;;;;4.15;3.78;;;;;;;26.47;55.93;100670.97;143731;644;47004;-83
2023/06/13 00:39:01;;;;;;;6.25;3.72;;;;;;;26.45;54.45;100673.22;143733;617;47010;-86
2023/06/13 00:41:31;;;;;;;4.85;3.72;;;;;;;26.45;55.15;100671.31;143737;612;45012;-86
2023/06/13 00:43:58;;;;;;;5.03;4.05;;;;;;;26.42;55.56;100666.41;143733;586;45925;-84
2023/06/13 00:46:32;;;;;;;5.28;3.87;;;;;;;26.41;55.30;100666.69;143727;594;48936;-86
2023/06/13 00:48:59;;;;;;;5.78;4.12;;;;;;;26.37;54.90;100669.25;143733;600;47012;-83
2023/06/13 00:51:31;;;;;;;8.77;4.50;;;;;;;26.36;55.33;100662.12;143734;567;48011;-85
2023/06/13 00:54:01;;;;;;;4.68;4.03;;;;;;;26.36;54.84;100664.06;143727;582;46008;-84
2023/06/13 00:56:29;;;;;;;6.85;4.22;;;;;;;26.38;54.89;100661.81;143722;731;47014;-84
2023/06/13 00:59:03;;;;;;;5.60;4.62;;;;;;;26.36;54.12;100659.38;143727;663;47013;-83
2023/06/13 01:01:30;;;;;;;6.03;4.70;;;;;;;26.34;54.58;100661.59;143719;644;50004;-83
2023/06/13 01:03:59;;;;;;;4.82;4.32;;;;;;;26.32;55.23;100659.16;143728;586;45925;-85
2023/06/13 01:06:30;;;;;;;5.15;4.35;;;;;;;26.30;55.04;100646.81;143732;681;45010;-85
2023/06/13 01:09:05;;;;;;;6.18;4.80;;;;;;;26.29;55.09;100645.22;143728;585;47012;-84
2023/06/13 01:12:00;;;;;;;6.18;4.95;;;;;;;26.25;54.95;100644.19;143728;589;45927;-86
2023/06/13 01:15:01;;;;;;;5.45;4.57;;;;;;;26.25;55.67;100641.44;143723;635;49008;-84
2023/06/13 01:17:34;;;;;;;7.30;5.40;;;;;;;26.23;55.08;100643.69;143731;636;46004;-85
2023/06/13 01:20:10;;;;;;;6.65;4.95;;;;;;;26.21;55.56;100646.72;143725;677;46012;-84
2023/06/13 01:23:08;;;;;;;8.15;4.90;;;;;;;26.19;55.53;100649.00;143731;692;45012;-83
2023/06/13 01:25:59;;;;;;;7.93;5.20;;;;;;;26.15;55.89;100651.50;143729;591;46008;-84
2023/06/13 01:28:27;;;;;;;6.43;5.07;;;;;;;26.15;55.32;100647.97;143732;654;45010;-86
2023/06/13 01:30:56;;;;;;;7.25;5.25;;;;;;;26.15;55.22;100650.72;143723;578;49004;-85
2023/06/13 01:33:24;;;;;;;8.02;5.53;;;;;;;26.12;55.89;100654.88;143728;568;47004;-85
2023/06/13 01:35:52;;;;;;;7.12;4.53;;;;;;;26.12;55.46;100656.81;143729;612;47009;-84
2023/06/13 01:38:19;;;;;;;5.70;5.10;;;;;;;26.11;56.08;100661.53;143731;578;46019;-83
2023/06/13 01:40:47;;;;;;;6.85;5.47;;;;;;;26.09;55.72;100663.75;143727;703;47011;-84
2023/06/13 01:43:15;;;;;;;7.32;5.15;;;;;;;26.09;56.36;100663.75;143730;635;45012;-84
2023/06/13 01:45:42;;;;;;;7.43;5.12;;;;;;;26.07;56.42;100668.72;143703;736;56004;-84
2023/06/13 01:48:37;;;;;;;7.18;5.30;;;;;;;26.05;57.14;100668.22;143732;589;45011;-85
2023/06/13 01:51:26;;;;;;;7.30;4.95;;;;;;;26.07;55.62;100676.16;143722;657;48004;-84
2023/06/13 01:54:01;;;;;;;5.57;4.60;;;;;;;26.07;56.00;100678.91;143758;627;44927;-85
2023/06/13 01:56:31;;;;;;;7.75;5.07;;;;;;;26.06;56.05;100680.03;143755;632;45009;-85
2023/06/13 01:59:06;;;;;;;5.25;3.67;;;;;;;26.04;56.44;100672.88;143761;576;44010;-85
2023/06/13 02:01:35;;;;;;;6.53;4.57;;;;;;;26.03;56.27;100662.19;143749;585;46010;-83
2023/06/13 02:04:02;;;;;;;6.57;4.20;;;;;;;26.02;56.90;100666.06;143736;700;46013;-82
2023/06/13 02:06:29;;;;;;;5.18;4.68;;;;;;;25.98;57.53;100668.63;143727;567;48004;-85
2023/06/13 02:08:57;;;;;;;9.77;5.55;;;;;;;25.96;56.99;100684.63;143732;572;47004;-84
2023/06/13 02:11:24;;;;;;;7.40;5.03;;;;;;;25.96;56.38;100687.38;143730;573;48011;-84
2023/06/13 02:13:50;;;;;;;5.90;5.25;;;;;;;25.96;56.45;100692.03;143732;582;47006;-84
2023/06/13 02:16:18;;;;;;;5.72;4.75;;;;;;;25.96;56.70;100703.88;143734;591;45924;-85
2023/06/13 02:18:47;;;;;;;5.32;4.53;;;;;;;25.96;56.95;100705.78;143735;594;47004;-84
2023/06/13 02:21:14;;;;;;;6.62;5.15;;;;;;;25.96;57.24;100703.03;143721;635;53923;-85
2023/06/13 02:23:41;;;;;;;6.43;4.55;;;;;;;25.97;56.44;100704.69;143737;646;45012;-85
2023/06/13 02:26:08;;;;;;;7.43;4.62;;;;;;;25.98;56.63;100700.81;143736;675;45925;-84
2023/06/13 02:28:41;;;;;;;6.93;5.20;;;;;;;25.97;57.41;100712.94;143739;595;45010;-85
2023/06/13 02:31:18;;;;;;;6.00;5.40;;;;;;;25.96;56.94;100714.06;143731;613;48014;-86
2023/06/13 02:33:45;;;;;;;6.62;5.10;;;;;;;25.98;56.47;100718.16;143756;569;45006;-85
2023/06/13 02:36:12;;;;;;;6.97;5.43;;;;;;;26.00;56.68;100718.66;143756;585;45925;-85
2023/06/13 02:38:39;;;;;;;5.65;4.50;;;;;;;26.02;56.28;100726.62;143750;625;46020;-82
2023/06/13 02:41:06;;;;;;;7.00;4.82;;;;;;;26.02;56.55;100726.62;143749;584;48012;-85
2023/06/13 02:43:33;;;;;;;5.93;4.82;;;;;;;26.03;56.51;100733.75;143758;592;45004;-85
2023/06/13 02:46:00;;;;;;;6.22;5.12;;;;;;;26.01;57.47;100728.56;143755;621;46008;-86
2023/06/13 02:48:27;;;;;;;5.22;4.70;;;;;;;26.00;57.19;100723.34;143759;586;46006;-85
2023/06/13 02:50:54;;;;;;;6.10;4.87;;;;;;;25.98;57.04;100728.31;143755;666;46010;-84
2023/06/13 02:53:21;;;;;;;7.72;5.43;;;;;;;25.97;57.14;100733.03;143733;705;47006;-85
2023/06/13 02:55:48;;;;;;;6.10;5.03;;;;;;;25.96;56.36;100723.12;143730;590;45011;-83
2023/06/13 02:58:15;;;;;;;5.90;4.75;;;;;;;25.98;56.00;100734.66;143728;590;47004;-84
2023/06/13 03:00:41;;;;;;;9.07;5.70;;;;;;;25.99;55.46;100736.31;143729;661;46008;-83
2023/06/13 03:03:08;;;;;;;9.77;5.28;;;;;;;25.98;55.33;100733.84;143729;619;47005;-84
2023/06/13 03:05:36;;;;;;;8.93;5.62;;;;;;;25.96;55.38;100727.81;143730;586;45925;-85
2023/06/13 03:08:04;;;;;;;7.05;5.97;;;;;;;25.98;55.03;100725.56;143733;577;45010;-85
2023/06/13 03:10:32;;;;;;;12.68;6.37;;;;;;;25.97;55.28;100723.94;143729;595;46018;-85
2023/06/13 03:12:59;;;;;;;8.25;5.85;;;;;;;25.96;55.26;100722.31;143728;606;47004;-84
2023/06/13 03:15:27;;;;;;;6.90;5.65;;;;;;;25.94;55.35;100739.13;143731;569;45010;-85
2023/06/13 03:17:53;;;;;;;7.70;5.30;;;;;;;25.93;55.79;100732.00;143730;671;47002;-85
2023/06/13 03:20:21;;;;;;;8.73;5.07;;;;;;;25.93;55.79;100736.69;143727;582;47013;-85
2023/06/13 03:22:48;;;;;;;7.60;5.28;;;;;;;25.94;55.87;100732.81;143724;605;47006;-83
2023/06/13 03:25:16;;;;;;;8.23;5.72;;;;;;;25.94;55.85;100727.31;143727;592;47008;-85
2023/06/13 03:27:43;;;;;;;7.78;5.90;;;;;;;25.92;55.78;100737.81;143731;589;46004;-87
2023/06/13 03:30:11;;;;;;;9.80;5.90;;;;;;;25.90;56.09;100735.34;143730;597;46010;-84
2023/06/13 03:32:38;;;;;;;7.60;6.10;;;;;;;25.90;55.95;100735.34;143730;590;45012;-85
2023/06/13 03:35:05;;;;;;;14.63;6.20;;;;;;;25.88;55.63;100741.16;143727;633;48008;-85
2023/06/13 03:37:32;;;;;;;10.50;6.50;;;;;;;25.87;55.75;100739.53;143734;606;45010;-85
2023/06/13 03:39:59;;;;;;;8.02;6.20;;;;;;;25.86;56.00;100740.66;143729;647;46010;-84
2023/06/13 03:42:26;;;;;;;7.87;5.68;;;;;;;25.86;56.15;100739.81;143731;584;45012;-85
2023/06/13 03:44:53;;;;;;;6.32;5.32;;;;;;;25.86;55.67;100740.66;143730;685;45925;-86
2023/06/13 03:47:19;;;;;;;8.25;4.80;;;;;;;25.87;55.52;100753.28;143733;573;45011;-85
2023/06/13 03:49:47;;;;;;;6.32;4.70;;;;;;;25.85;55.11;100744.50;143730;713;45923;-84
2023/06/13 03:52:13;;;;;;;6.12;4.40;;;;;;;25.87;55.36;100752.44;143730;717;46015;-84
2023/06/13 03:54:40;;;;;;;5.95;3.80;;;;;;;25.86;55.34;100762.66;143720;654;48005;-85
2023/06/13 03:57:07;;;;;;;5.40;3.97;;;;;;;25.86;55.00;100770.91;143730;608;47002;-84
2023/06/13 03:59:34;;;;;;;8.00;4.28;;;;;;;25.87;55.25;100768.97;143729;603;47012;-85
2023/06/13 04:02:01;;;;;;;10.10;4.57;;;;;;;25.88;54.98;100767.84;143726;580;47006;-85
2023/06/13 04:04:28;;;;;;;7.90;4.78;;;;;;;25.90;54.46;100762.87;143731;667;45010;-84
2023/06/13 04:06:58;;;;;;;8.98;4.55;;;;;;;25.91;54.69;100767.25;143733;570;47006;-85
2023/06/13 04:09:25;;;;;;;8.77;4.65;;;;;;;25.95;55.00;100781.22;143729;580;47012;-85
2023/06/13 04:11:52;;;;;;;8.57;5.00;;;;;;;25.95;54.59;100771.03;143729;693;47004;-85
2023/06/13 04:14:19;;;;;;;6.65;5.60;;;;;;;25.95;54.30;100776.53;143731;567;46004;-84
2023/06/13 04:16:46;;;;;;;8.68;5.40;;;;;;;25.95;54.61;100762.78;143722;693;48012;-86
2023/06/13 04:19:18;;;;;;;10.15;5.20;;;;;;;25.95;54.41;100768.28;143721;619;51008;-84
2023/06/13 04:21:48;;;;;;;7.50;4.70;;;;;;;25.95;54.84;100765.53;143731;603;46004;-85
2023/06/13 04:24:15;;;;;;;10.20;6.03;;;;;;;25.96;55.28;100769.91;143729;581;47006;-85
2023/06/13 04:26:45;;;;;;;6.95;5.22;;;;;;;25.98;55.15;100783.38;143727;633;47004;-84
2023/06/13 04:29:13;;;;;;;7.93;5.45;;;;;;;25.99;55.49;100783.09;143729;572;46008;-84
2023/06/13 04:31:43;;;;;;;7.70;5.75;;;;;;;26.01;55.89;100785.53;143731;568;46023;-85
2023/06/13 04:34:11;;;;;;;10.02;5.43;;;;;;;26.01;56.61;100783.59;143731;724;45925;-84
2023/06/13 04:36:41;;;;;;;9.68;5.75;;;;;;;26.01;56.55;100783.59;143728;612;47010;-85
2023/06/13 04:39:08;;;;;;;6.70;5.28;;;;;;;26.01;56.61;100794.62;143716;580;50008;-85
2023/06/13 04:41:37;;;;;;;10.88;6.40;;;;;;;26.03;56.30;100788.78;143732;622;45012;-84
2023/06/13 04:44:05;;;;;;;8.82;5.40;;;;;;;26.03;56.23;100791.53;143726;645;47006;-83
2023/06/13 04:46:32;;;;;;;11.40;5.28;;;;;;;26.03;56.30;100788.78;143730;590;48004;-86
2023/06/13 04:49:01;;;;;;;7.15;5.35;;;;;;;26.06;55.73;100801.12;143728;600;47013;-91
2023/06/13 04:51:28;;;;;;;8.65;4.85;;;;;;;26.08;55.57;100810.72;143731;584;46006;-80
2023/06/13 04:53:59;;;;;;;8.13;5.03;;;;;;;26.13;55.73;100804.34;143726;577;48006;-83
2023/06/13 04:56:27;;;;;;;7.82;4.87;;;;;;;26.20;54.96;100817.72;143725;585;47010;-85
2023/06/13 04:58:55;;;;;;;8.80;4.97;;;;;;;26.22;54.77;100818.22;143731;592;46012;-84
2023/06/13 05:01:26;;;;;;;8.13;5.53;;;;;;;26.22;55.03;100813.53;143728;584;49004;-84
2023/06/13 05:03:53;;;;;;;5.87;4.50;;;;;;;26.25;54.78;100821.19;143726;581;48009;-85
2023/06/13 05:06:21;;;;;;;6.40;4.55;;;;;;;26.26;54.84;100814.56;143724;575;47006;-84
2023/06/13 05:08:48;;;;;;;7.18;4.78;;;;;;;26.28;54.67;100825.28;143730;568;47010;-85
2023/06/13 05:11:15;;;;;;;7.10;4.97;;;;;;;26.31;55.20;100830.16;143730;722;46006;-85
2023/06/13 05:13:42;;;;;;;9.00;5.25;;;;;;;26.33;55.14;100833.44;143730;590;45010;-84
2023/06/13 05:16:09;;;;;;;9.95;4.72;;;;;;;26.34;55.11;100837.81;143720;591;48006;-84
2023/06/13 05:18:35;;;;;;;6.70;5.00;;;;;;;26.36;55.34;100834.78;143732;704;45012;-84
2023/06/13 05:21:02;;;;;;;10.02;4.90;;;;;;;26.37;55.42;100833.66;143730;584;47004;-85
2023/06/13 05:23:29;;;;;;;7.35;4.55;;;;;;;26.39;55.35;100835.00;143729;600;46925;-85
2023/06/13 05:25:56;;;;;;;9.20;4.70;;;;;;;26.40;55.22;100833.03;143731;584;47004;-85
2023/06/13 05:28:23;;;;;;;5.32;4.35;;;;;;;26.42;55.21;100833.56;143732;673;45012;-85
2023/06/13 05:30:51;;;;;;;5.15;4.65;;;;;;;26.44;55.02;100837.66;143725;596;47012;-84
2023/06/13 05:33:18;;;;;;;9.80;4.28;;;;;;;26.46;54.74;100832.66;143733;573;45010;-84
2023/06/13 05:35:45;;;;;;;5.57;4.47;;;;;;;26.49;54.86;100831.22;143734;591;45010;-85
2023/06/13 05:38:12;;;;;;;5.45;4.62;;;;;;;26.52;54.79;100838.06;143731;569;45923;-85
2023/06/13 05:40:40;;;;;;;7.30;4.37;;;;;;;26.55;53.91;100837.47;143732;647;45012;-85
2023/06/13 05:43:08;;;;;;;5.75;4.47;;;;;;;26.57;53.78;100840.72;143732;568;45924;-87
2023/06/13 05:45:34;;;;;;;6.50;4.07;;;;;;;26.59;53.44;100836.53;143723;660;50004;-85
2023/06/13 05:48:01;;;;;;;4.62;3.97;;;;;;;26.64;53.58;100836.44;143730;651;47012;-85
2023/06/13 05:50:28;;;;;;;4.90;3.83;;;;;;;26.66;53.14;100838.88;143731;568;45927;-86
2023/06/13 05:52:55;;;;;;;7.57;4.07;;;;;;;26.64;52.01;100841.97;143730;643;45010;-85
2023/06/13 05:55:22;;;;;;;4.20;3.80;;;;;;;26.63;52.22;100845.84;143732;705;46019;-85
2023/06/13 05:57:50;;;;;;;5.72;3.65;;;;;;;26.66;52.14;100849.09;143728;650;47012;-85
2023/06/13 06:00:17;;;;;;;5.55;3.62;;;;;;;26.68;52.25;100855.94;143731;654;46010;-85
2023/06/13 06:02:48;;;;;;;11.43;4.03;;;;;;;26.72;51.85;100847.91;143729;592;47008;-84
2023/06/13 06:05:15;;;;;;;5.25;3.60;;;;;;;26.72;51.59;100848.69;143734;666;45010;-85
2023/06/13 06:07:43;;;;;;;5.95;4.00;;;;;;;26.74;51.98;100851.97;143729;668;46018;-85
2023/06/13 06:10:11;;;;;;;5.80;3.85;;;;;;;26.76;51.68;100859.91;143732;576;45012;-84
2023/06/13 06:12:39;;;;;;;10.27;3.90;;;;;;;26.78;51.37;100860.44;143732;582;45010;-84
2023/06/13 06:15:06;;;;;;;5.05;3.60;;;;;;;26.80;51.05;100868.44;143721;568;50004;-85
2023/06/13 06:17:33;;;;;;;5.20;3.62;;;;;;;26.83;51.37;100859.56;143721;663;49923;-85
2023/06/13 06:20:01;;;;;;;6.82;3.78;;;;;;;26.84;51.21;100859.25;143722;624;48004;-84
2023/06/13 06:22:29;;;;;;;5.87;3.90;;;;;;;26.88;51.64;100867.72;143732;575;45010;-85
2023/06/13 06:24:55;;;;;;;8.63;4.50;;;;;;;26.90;51.63;100863.56;143728;704;47005;-85
2023/06/13 06:27:22;;;;;;;7.43;4.22;;;;;;;26.93;51.25;100862.91;143726;582;47006;-84
2023/06/13 06:29:49;;;;;;;6.20;4.22;;;;;;;26.96;50.77;100866.19;143727;711;48004;-83
2023/06/13 06:32:16;;;;;;;8.32;4.15;;;;;;;26.98;50.94;100872.22;143730;644;46008;-84
2023/06/13 06:34:43;;;;;;;8.50;4.95;;;;;;;27.00;51.08;100869.97;143726;746;48010;-83
2023/06/13 06:37:10;;;;;;;6.82;4.43;;;;;;;27.03;51.28;100870.16;143724;588;48012;-85
2023/06/13 06:39:36;;;;;;;8.13;5.18;;;;;;;27.06;51.21;100872.31;143729;569;47006;-85
2023/06/13 06:42:04;;;;;;;7.12;3.90;;;;;;;27.09;51.46;100865.38;143729;712;46008;-84
2023/06/13 06:44:31;;;;;;;7.00;4.12;;;;;;;27.13;51.43;100877.41;143727;568;47004;-85
2023/06/13 06:46:58;;;;;;;7.25;4.72;;;;;;;27.14;50.79;100867.22;143727;590;46012;-85
2023/06/13 06:49:25;;;;;;;6.53;4.47;;;;;;;27.16;51.46;100871.28;143727;614;47019;-83
2023/06/13 06:51:51;;;;;;;7.72;4.32;;;;;;;27.17;50.49;100870.16;143732;683;45010;-84
2023/06/13 06:54:18;;;;;;;7.40;3.92;;;;;;;27.18;50.82;100871.00;143732;639;46004;-84
2023/06/13 06:56:45;;;;;;;7.85;3.80;;;;;;;27.20;51.15;100883.34;143730;725;46010;-84
2023/06/13 06:59:12;;;;;;;8.70;4.28;;;;;;;27.22;50.62;100863.72;143732;640;46004;-84
2023/06/13 07:01:39;;;;;;;6.32;4.40;;;;;;;27.22;50.59;100866.47;143732;648;45926;-83
2023/06/13 07:04:05;;;;;;;14.90;8.98;;;;;;;27.23;50.62;100863.44;143732;738;46006;-83
2023/06/13 07:06:45;;;;;;;8.07;4.37;;;;;;;27.25;50.47;100863.09;143731;597;45012;-84
2023/06/13 07:09:16;;;;;;;7.95;5.35;;;;;;;27.31;50.49;100861.88;143731;761;45012;-84
2023/06/13 07:11:43;;;;;;;6.82;4.75;;;;;;;27.35;50.25;100867.59;143726;623;47008;-83
2023/06/13 07:14:10;;;;;;;9.65;4.22;;;;;;;27.38;49.86;100856.75;143728;696;47004;-84
2023/06/13 07:16:37;;;;;;;5.68;4.22;;;;;;;27.39;49.52;100855.62;143731;586;45923;-84
2023/06/13 07:19:04;;;;;;;4.47;3.80;;;;;;;27.39;49.20;100855.62;143725;646;47004;-85
2023/06/13 07:21:31;;;;;;;8.38;4.20;;;;;;;27.40;49.41;100848.19;143728;597;45925;-83
2023/06/13 07:23:58;;;;;;;8.07;4.20;;;;;;;27.41;49.61;100855.31;143728;589;47004;-84
2023/06/13 07:26:26;;;;;;;7.30;4.28;;;;;;;27.44;49.80;100853.87;143727;655;47010;-85
2023/06/13 07:28:53;;;;;;;6.37;4.43;;;;;;;27.46;49.63;100857.19;143727;642;48004;-84
2023/06/13 07:31:20;;;;;;;9.77;4.30;;;;;;;27.47;49.88;100859.63;143729;602;46020;-83
2023/06/13 07:33:47;;;;;;;8.15;4.62;;;;;;;27.48;50.24;100861.25;143732;683;46002;-84
2023/06/13 07:36:16;;;;;;;5.72;4.40;;;;;;;27.49;50.36;100868.41;143718;626;49008;-83
2023/06/13 07:38:43;;;;;;;8.00;4.00;;;;;;;27.47;50.86;100859.63;143729;625;48002;-84
2023/06/13 07:41:11;;;;;;;9.70;4.28;;;;;;;27.46;51.15;100860.75;143731;573;45925;-83
2023/06/13 07:43:38;;;;;;;9.48;4.50;;;;;;;27.48;51.70;100861.25;143733;596;46002;-84
2023/06/13 07:46:06;;;;;;;10.90;4.78;;;;;;;27.37;52.22;100868.91;143732;573;45010;-83
2023/06/13 07:48:33;;;;;;;8.38;4.60;;;;;;;27.34;52.74;100863.19;143724;572;47004;-83
2023/06/13 07:51:00;;;;;;;9.10;5.40;;;;;;;27.35;53.31;100862.91;143729;599;47020;-82
2023/06/13 07:53:27;;;;;;;10.45;5.10;;;;;;;27.20;53.14;100864.03;143733;595;45011;-83
2023/06/13 07:55:55;;;;;;;7.20;4.35;;;;;;;27.16;52.98;100862.22;143730;613;46923;-82
2023/06/13 07:58:22;;;;;;;8.73;4.32;;;;;;;27.09;52.93;100868.16;143728;576;47004;-84
2023/06/13 08:00:49;;;;;;;7.37;4.62;;;;;;;27.05;53.65;100864.37;143731;604;45925;-83
2023/06/13 08:03:16;;;;;;;7.87;5.40;;;;;;;27.11;53.19;100865.06;143726;636;47004;-82
2023/06/13 08:05:43;;;;;;;6.32;4.05;;;;;;;27.20;52.27;100872.31;143731;566;46026;-82
2023/06/13 08:08:10;;;;;;;8.68;4.62;;;;;;;27.29;53.17;100868.81;143731;674;46002;-82
2023/06/13 08:10:37;;;;;;;13.80;5.55;;;;;;;27.36;51.94;100869.22;143726;673;46006;-82
2023/06/13 08:13:03;;;;;;;9.90;5.20;;;;;;;27.38;51.53;100869.72;143731;607;46012;-82
2023/06/13 08:15:30;;;;;;;8.57;5.05;;;;;;;27.34;50.95;100871.47;143726;593;46010;-83
2023/06/13 08:17:57;;;;;;;4.47;4.00;;;;;;;27.35;49.15;100882.22;143725;584;48004;-83
2023/06/13 08:20:24;;;;;;;6.65;4.22;;;;;;;27.42;49.47;100879.03;143725;586;47006;-83
2023/06/13 08:22:51;;;;;;;10.57;4.55;;;;;;;27.42;48.13;100884.53;143731;581;46008;-83
2023/06/13 08:25:18;;;;;;;6.93;3.08;;;;;;;27.37;47.67;100885.44;143727;572;48008;-83
2023/06/13 08:27:45;;;;;;;6.37;3.42;;;;;;;27.35;48.00;100884.97;143727;584;47004;-83
2023/06/13 08:30:12;;;;;;;6.85;3.35;;;;;;;27.34;48.47;100882.50;143731;603;45925;-83
2023/06/13 08:32:41;;;;;;;7.47;3.65;;;;;;;27.20;49.57;100897.13;143732;655;47002;-83
2023/06/13 08:35:08;;;;;;;4.85;3.17;;;;;;;27.17;49.46;100894.97;143729;598;46004;-83
2023/06/13 08:37:35;;;;;;;5.85;4.07;;;;;;;27.17;50.35;100892.22;143723;596;47004;-83
2023/06/13 08:40:04;;;;;;;6.75;3.67;;;;;;;27.15;49.95;100893.66;143733;617;45010;-83
2023/06/13 08:42:32;;;;;;;6.25;3.40;;;;;;;27.09;50.42;100888.25;143731;580;47000;-82
2023/06/13 08:45:00;;;;;;;14.25;4.93;;;;;;;27.06;52.07;100904.59;143730;573;46004;-82
2023/06/13 08:47:27;;;;;;;7.60;3.60;;;;;;;27.02;51.16;100903.56;143728;575;47004;-82
2023/06/13 08:49:53;;;;;;;4.75;3.35;;;;;;;26.97;52.30;100907.25;143731;590;45925;-82
2023/06/13 08:52:21;;;;;;;4.90;3.00;;;;;;;26.93;52.28;100898.75;143728;683;47004;-84
2023/06/13 08:54:53;;;;;;;3.80;3.00;;;;;;;26.89;52.22;100900.50;143729;631;47011;-81
2023/06/13 08:57:22;;;;;;;4.80;3.10;;;;;;;26.84;52.99;100902.50;143732;572;45012;-82
2023/06/13 08:59:51;;;;;;;6.40;3.30;;;;;;;26.80;52.98;100905.06;143731;590;45925;-82
2023/06/13 09:02:24;;;;;;;7.45;4.12;;;;;;;26.76;53.32;100904.00;143724;569;48004;-83
2023/06/13 09:04:52;;;;;;;4.95;3.33;;;;;;;26.75;53.32;100907.87;143729;628;47008;-82
2023/06/13 09:07:21;;;;;;;8.85;4.22;;;;;;;26.72;54.01;100900.25;143733;617;45013;-81
2023/06/13 09:09:50;;;;;;;5.15;4.05;;;;;;;26.71;54.49;100909.62;143725;608;47006;-83
2023/06/13 09:12:17;;;;;;;5.43;3.83;;;;;;;26.68;54.94;100907.47;143733;575;45010;-83
2023/06/13 09:14:45;;;;;;;6.72;3.53;;;;;;;26.69;55.11;100907.16;143729;715;46010;-83
2023/06/13 09:17:13;;;;;;;5.12;4.43;;;;;;;26.72;55.95;100905.75;143728;600;47002;-83
2023/06/13 09:19:39;;;;;;;5.53;4.20;;;;;;;26.70;55.92;100906.03;143725;705;47006;-82
2023/06/13 09:22:06;;;;;;;6.10;4.03;;;;;;;26.68;56.50;100905.53;143728;569;48000;-82
2023/06/13 09:24:50;;;;;;;6.35;4.45;;;;;;;26.69;57.42;100903.59;143729;670;46008;-85
2023/06/13 09:27:22;;;;;;;6.50;3.90;;;;;;;26.72;56.49;100909.31;143730;657;46008;-84
2023/06/13 09:29:49;;;;;;;7.32;3.90;;;;;;;26.75;55.39;100903.19;143728;704;46006;-82
2023/06/13 09:32:18;;;;;;;9.95;4.18;;;;;;;26.77;55.34;100903.72;143732;678;45010;-82
2023/06/13 09:34:45;;;;;;;4.62;3.22;;;;;;;26.82;54.26;100902.03;143723;572;47008;-81
2023/06/13 09:37:12;;;;;;;6.20;3.83;;;;;;;26.84;55.09;100894.25;143729;573;46011;-82
2023/06/13 09:39:50;;;;;;;4.25;3.17;;;;;;;26.85;55.12;100895.88;143725;699;47006;-82
2023/06/13 09:42:23;;;;;;;5.75;3.47;;;;;;;26.88;54.57;100904.38;143730;612;46002;-83
2023/06/13 09:44:52;;;;;;;6.20;3.67;;;;;;;26.91;55.31;100901.00;143724;621;50009;-82
2023/06/13 09:47:27;;;;;;;6.53;3.83;;;;;;;26.96;54.69;100905.59;143719;625;47008;-82
2023/06/13 09:49:58;;;;;;;6.75;3.83;;;;;;;26.94;55.17;100894.87;143730;582;45010;-83
2023/06/13 09:52:32;;;;;;;4.47;3.45;;;;;;;26.99;54.21;100891.22;143725;567;48004;-83
2023/06/13 09:54:59;;;;;;;4.87;3.70;;;;;;;27.02;55.19;100890.59;143729;584;45923;-83
2023/06/13 09:57:26;;;;;;;8.68;3.85;;;;;;;27.04;55.46;100882.81;143722;607;47004;-83
2023/06/13 09:59:52;;;;;;;4.87;3.30;;;;;;;27.07;55.71;100884.16;143728;624;45011;-82
2023/06/13 10:02:23;;;;;;;4.30;3.85;;;;;;;27.13;54.28;100884.87;143725;683;49004;-82
2023/06/13 10:04:51;;;;;;;7.53;4.37;;;;;;;27.17;55.34;100889.47;143728;662;46010;-81
2023/06/13 10:07:18;;;;;;;5.40;3.33;;;;;;;27.23;54.16;100887.41;143724;627;48002;-82
2023/06/13 10:09:46;;;;;;;4.95;3.45;;;;;;;27.28;54.99;100881.78;143728;584;45010;-83
2023/06/13 10:12:24;;;;;;;7.72;3.87;;;;;;;27.32;55.23;100882.81;143727;589;47002;-83
2023/06/13 10:14:57;;;;;;;7.07;3.15;;;;;;;27.08;52.58;100878.34;143726;672;47008;-84
2023/06/13 10:17:29;;;;;;;6.80;3.25;;;;;;;27.16;51.87;100867.72;143729;609;45937;-84
2023/06/13 10:20:09;;;;;;;5.47;3.37;;;;;;;27.29;52.94;100869.66;143731;629;45010;-84
2023/06/13 10:22:39;;;;;;;5.28;3.22;;;;;;;27.39;51.74;100874.94;143732;592;45011;-83
2023/06/13 10:25:10;;;;;;;5.72;3.17;;;;;;;27.26;49.97;100874.97;143726;665;47002;-82
2023/06/13 10:27:41;;;;;;;5.25;3.17;;;;;;;27.35;51.84;100881.37;143727;586;47004;-83
2023/06/13 10:30:37;;;;;;;6.72;3.53;;;;;;;27.45;52.48;100875.62;143727;574;46000;-82
2023/06/13 10:33:38;;;;;;;6.43;3.08;;;;;;;27.51;52.17;100874.44;143731;572;46002;-82
2023/06/13 10:36:52;;;;;;;5.15;3.37;;;;;;;27.62;50.46;100865.94;143729;711;45923;-83
2023/06/13 10:40:07;;;;;;;8.35;3.33;;;;;;;27.74;49.99;100859.84;143728;580;47002;-82
2023/06/13 10:42:40;;;;;;;4.60;2.60;;;;;;;27.69;50.20;100864.37;143730;705;45010;-82
2023/06/13 10:45:13;;;;;;;8.75;3.15;;;;;;;27.63;49.41;100859.25;143730;576;47004;-83
2023/06/13 10:47:40;;;;;;;5.20;3.00;;;;;;;27.51;48.85;100851.56;143729;630;45921;-83
2023/06/13 10:50:08;;;;;;;5.05;2.70;;;;;;;27.56;48.48;100847.84;143727;611;48004;-84
2023/06/13 10:52:35;;;;;;;4.62;2.75;;;;;;;27.57;49.28;100850.28;143729;567;45925;-83
2023/06/13 10:55:02;;;;;;;3.05;2.33;;;;;;;27.49;46.58;100845.53;143731;572;46004;-82
2023/06/13 10:57:51;;;;;;;7.32;2.55;;;;;;;27.42;47.31;100848.69;143729;627;45923;-84
2023/06/13 11:00:27;;;;;;;4.32;2.53;;;;;;;27.43;45.54;100846.72;143729;662;46015;-83
2023/06/13 11:02:58;;;;;;;4.85;2.40;;;;;;;27.57;47.66;100838.47;143730;602;45010;-82
2023/06/13 11:05:26;;;;;;;3.08;2.05;;;;;;;27.67;47.88;100841.78;143731;580;46018;-83
2023/06/13 11:07:57;;;;;;;6.20;2.40;;;;;;;27.62;46.97;100835.59;143724;567;47011;-83
2023/06/13 11:10:24;;;;;;;5.28;2.83;;;;;;;27.66;46.44;100831.88;143722;663;50004;-82
2023/06/13 11:12:53;;;;;;;5.78;2.62;;;;;;;27.79;46.37;100829.38;143727;572;47008;-82
2023/06/13 11:15:25;;;;;;;5.37;2.12;;;;;;;27.62;46.01;100832.84;143730;595;47004;-82
2023/06/13 11:18:26;;;;;;;5.12;1.83;;;;;;;27.73;45.14;100844.41;143729;586;45922;-84
2023/06/13 11:20:54;;;;;;;4.12;2.33;;;;;;;27.86;45.72;100837.22;143706;619;57004;-82
2023/06/13 11:23:37;;;;;;;5.35;2.37;;;;;;;27.96;45.41;100832.25;143730;586;45010;-82
2023/06/13 11:26:04;;;;;;;7.95;3.03;;;;;;;28.08;45.67;100833.63;143730;593;47006;-83
2023/06/13 11:28:31;;;;;;;5.35;2.15;;;;;;;28.04;45.11;100832.66;143725;625;47012;-83
2023/06/13 11:31:03;;;;;;;4.00;2.70;;;;;;;28.02;44.40;100824.66;143729;569;46018;-83
2023/06/13 11:33:40;;;;;;;2.80;2.08;;;;;;;28.09;45.42;100816.75;143727;597;46008;-82
2023/06/13 11:36:07;;;;;;;3.50;2.45;;;;;;;28.16;44.67;100810.81;143727;613;48004;-83